sensor_id;sensor_type;location;lat;lon;timestamp;P1;durP1;ratioP1;P2;durP2;ratioP2
21258;SDS011;10787;53.364;-1.480;2022-08-19T00:01:31;4.25;;;3.63;;
21258;SDS011;10787;53.364;-1.480;2022-08-19T00:03:58;5.30;;;3.72;;
21258;SDS011;10787;53.364;-1.480;2022-08-19T00:06:27;5.28;;;4.00;;
21258;SDS011;10787;53.364;-1.480;2022-08-19T00:08:54;4.53;;;4.10;;
21258;SDS011;10787;53.364;-1.480;2022-08-19T00:11:21;7.05;;;4.32;;
21258;SDS011;10787;53.364;-1.480;2022-08-19T00:13:48;6.70;;;4.70;;
21258;SDS011;10787;53.364;-1.480;2022-08-19T00:16:18;5.15;;;4.30;;
21258;SDS011;10787;53.364;-1.480;2022-08-19T00:18:45;4.90;;;4.40;;
21258;SDS011;10787;53.364;-1.480;2022-08-19T00:21:13;5.25;;;4.72;;
21258;SDS011;10787;53.364;-1.480;2022-08-19T00:23:40;4.82;;;4.32;;
21258;SDS011;10787;53.364;-1.480;2022-08-19T00:26:08;5.97;;;4.72;;
21258;SDS011;10787;53.364;-1.480;2022-08-19T00:28:34;6.03;;;4.63;;
21258;SDS011;10787;53.364;-1.480;2022-08-19T00:31:02;7.20;;;5.00;;
21258;SDS011;10787;53.364;-1.480;2022-08-19T00:33:30;6.70;;;3.10;;
21258;SDS011;10787;53.364;-1.480;2022-08-19T00:35:59;5.20;;;2.63;;
21258;SDS011;10787;53.364;-1.480;2022-08-19T00:38:31;5.45;;;2.63;;
21258;SDS011;10787;53.364;-1.480;2022-08-19T00:40:58;7.28;;;2.40;;
21258;SDS011;10787;53.364;-1.480;2022-08-19T00:43:26;7.63;;;2.70;;
21258;SDS011;10787;53.364;-1.480;2022-08-19T00:45:53;7.18;;;2.63;;
21258;SDS011;10787;53.364;-1.480;2022-08-19T00:48:19;8.60;;;3.10;;
21258;SDS011;10787;53.364;-1.480;2022-08-19T00:50:47;7.55;;;2.78;;
21258;SDS011;10787;53.364;-1.480;2022-08-19T00:53:15;8.00;;;3.00;;
21258;SDS011;10787;53.364;-1.480;2022-08-19T00:55:45;7.10;;;2.78;;
21258;SDS011;10787;53.364;-1.480;2022-08-19T00:58:17;13.02;;;2.70;;
21258;SDS011;10787;53.364;-1.480;2022-08-19T01:00:45;8.63;;;2.88;;
21258;SDS011;10787;53.364;-1.480;2022-08-19T01:03:30;6.68;;;2.78;;
21258;SDS011;10787;53.364;-1.480;2022-08-19T01:05:56;10.25;;;2.95;;
21258;SDS011;10787;53.364;-1.480;2022-08-19T01:08:22;8.20;;;2.92;;
21258;SDS011;10787;53.364;-1.480;2022-08-19T01:10:58;7.78;;;2.78;;
21258;SDS011;10787;53.364;-1.480;2022-08-19T01:13:27;8.20;;;2.83;;
21258;SDS011;10787;53.364;-1.480;2022-08-19T01:16:13;9.70;;;3.08;;
21258;SDS011;10787;53.364;-1.480;2022-08-19T01:18:41;9.95;;;2.92;;
21258;SDS011;10787;53.364;-1.480;2022-08-19T01:23:54;8.35;;;2.90;;
21258;SDS011;10787;53.364;-1.480;2022-08-19T01:26:21;7.25;;;2.65;;
21258;SDS011;10787;53.364;-1.480;2022-08-19T01:28:50;9.10;;;2.78;;
21258;SDS011;10787;53.364;-1.480;2022-08-19T01:31:23;7.82;;;2.78;;
21258;SDS011;10787;53.364;-1.480;2022-08-19T01:33:51;7.63;;;2.67;;
21258;SDS011;10787;53.364;-1.480;2022-08-19T01:36:32;11.70;;;3.08;;
21258;SDS011;10787;53.364;-1.480;2022-08-19T01:39:05;9.18;;;2.55;;
21258;SDS011;10787;53.364;-1.480;2022-08-19T01:41:33;11.02;;;2.75;;
21258;SDS011;10787;53.364;-1.480;2022-08-19T01:43:59;6.45;;;2.65;;
21258;SDS011;10787;53.364;-1.480;2022-08-19T01:46:29;9.32;;;2.97;;
21258;SDS011;10787;53.364;-1.480;2022-08-19T01:48:56;10.10;;;2.95;;
21258;SDS011;10787;53.364;-1.480;2022-08-19T01:51:22;8.68;;;2.88;;
21258;SDS011;10787;53.364;-1.480;2022-08-19T01:53:48;10.57;;;2.92;;
21258;SDS011;10787;53.364;-1.480;2022-08-19T01:56:15;7.78;;;2.63;;
21258;SDS011;10787;53.364;-1.480;2022-08-19T01:58:43;12.10;;;2.83;;
21258;SDS011;10787;53.364;-1.480;2022-08-19T02:01:15;9.10;;;2.90;;
21258;SDS011;10787;53.364;-1.480;2022-08-19T02:03:42;10.20;;;3.03;;
21258;SDS011;10787;53.364;-1.480;2022-08-19T02:06:08;10.73;;;2.88;;
21258;SDS011;10787;53.364;-1.480;2022-08-19T02:08:35;8.18;;;2.70;;
21258;SDS011;10787;53.364;-1.480;2022-08-19T02:11:02;7.40;;;2.75;;
21258;SDS011;10787;53.364;-1.480;2022-08-19T02:13:30;9.20;;;3.00;;
21258;SDS011;10787;53.364;-1.480;2022-08-19T02:15:56;11.50;;;2.97;;
21258;SDS011;10787;53.364;-1.480;2022-08-19T02:18:22;10.82;;;3.08;;
21258;SDS011;10787;53.364;-1.480;2022-08-19T02:20:49;12.98;;;2.95;;
21258;SDS011;10787;53.364;-1.480;2022-08-19T02:23:15;11.65;;;3.20;;
21258;SDS011;10787;53.364;-1.480;2022-08-19T02:25:43;12.38;;;3.10;;
21258;SDS011;10787;53.364;-1.480;2022-08-19T02:28:10;8.90;;;3.20;;
21258;SDS011;10787;53.364;-1.480;2022-08-19T02:30:37;11.70;;;3.38;;
21258;SDS011;10787;53.364;-1.480;2022-08-19T02:33:04;10.95;;;3.30;;
21258;SDS011;10787;53.364;-1.480;2022-08-19T02:35:30;9.73;;;2.78;;
21258;SDS011;10787;53.364;-1.480;2022-08-19T02:37:57;16.52;;;3.13;;
21258;SDS011;10787;53.364;-1.480;2022-08-19T02:40:47;9.52;;;3.20;;
21258;SDS011;10787;53.364;-1.480;2022-08-19T02:43:18;9.65;;;3.05;;
21258;SDS011;10787;53.364;-1.480;2022-08-19T02:45:47;10.90;;;2.88;;
21258;SDS011;10787;53.364;-1.480;2022-08-19T02:48:17;11.60;;;2.83;;
21258;SDS011;10787;53.364;-1.480;2022-08-19T02:50:45;12.82;;;3.05;;
21258;SDS011;10787;53.364;-1.480;2022-08-19T02:53:12;16.52;;;3.25;;
21258;SDS011;10787;53.364;-1.480;2022-08-19T02:55:42;12.30;;;2.72;;
21258;SDS011;10787;53.364;-1.480;2022-08-19T02:58:10;10.95;;;2.88;;
21258;SDS011;10787;53.364;-1.480;2022-08-19T03:00:35;13.00;;;3.28;;
21258;SDS011;10787;53.364;-1.480;2022-08-19T03:03:08;12.68;;;2.70;;
21258;SDS011;10787;53.364;-1.480;2022-08-19T03:05:33;13.20;;;2.97;;
21258;SDS011;10787;53.364;-1.480;2022-08-19T03:07:59;11.30;;;2.90;;
21258;SDS011;10787;53.364;-1.480;2022-08-19T03:10:25;12.95;;;2.92;;
21258;SDS011;10787;53.364;-1.480;2022-08-19T03:12:51;12.82;;;2.90;;
21258;SDS011;10787;53.364;-1.480;2022-08-19T03:15:17;12.43;;;3.00;;
21258;SDS011;10787;53.364;-1.480;2022-08-19T03:17:43;12.57;;;3.40;;
21258;SDS011;10787;53.364;-1.480;2022-08-19T03:20:09;12.50;;;3.00;;
21258;SDS011;10787;53.364;-1.480;2022-08-19T03:22:35;10.27;;;2.95;;
21258;SDS011;10787;53.364;-1.480;2022-08-19T03:25:02;11.43;;;2.80;;
21258;SDS011;10787;53.364;-1.480;2022-08-19T03:27:28;12.77;;;2.70;;
21258;SDS011;10787;53.364;-1.480;2022-08-19T03:29:54;14.88;;;3.00;;
21258;SDS011;10787;53.364;-1.480;2022-08-19T03:32:21;12.82;;;3.58;;
21258;SDS011;10787;53.364;-1.480;2022-08-19T03:34:47;11.27;;;3.05;;
21258;SDS011;10787;53.364;-1.480;2022-08-19T03:37:15;9.68;;;2.65;;
21258;SDS011;10787;53.364;-1.480;2022-08-19T03:39:41;16.02;;;3.17;;
21258;SDS011;10787;53.364;-1.480;2022-08-19T03:42:07;11.95;;;2.65;;
21258;SDS011;10787;53.364;-1.480;2022-08-19T03:44:36;11.23;;;2.70;;
21258;SDS011;10787;53.364;-1.480;2022-08-19T03:47:05;11.95;;;3.08;;
21258;SDS011;10787;53.364;-1.480;2022-08-19T03:49:31;12.98;;;2.67;;
21258;SDS011;10787;53.364;-1.480;2022-08-19T03:51:58;11.35;;;2.92;;
21258;SDS011;10787;53.364;-1.480;2022-08-19T03:54:30;11.50;;;2.72;;
21258;SDS011;10787;53.364;-1.480;2022-08-19T03:56:55;14.50;;;3.22;;
21258;SDS011;10787;53.364;-1.480;2022-08-19T03:59:23;12.98;;;2.53;;
21258;SDS011;10787;53.364;-1.480;2022-08-19T04:01:55;14.98;;;3.03;;
21258;SDS011;10787;53.364;-1.480;2022-08-19T04:04:22;11.75;;;3.00;;
21258;SDS011;10787;53.364;-1.480;2022-08-19T04:06:48;12.73;;;2.95;;
21258;SDS011;10787;53.364;-1.480;2022-08-19T04:09:17;13.20;;;3.20;;
21258;SDS011;10787;53.364;-1.480;2022-08-19T04:11:48;15.55;;;3.10;;
21258;SDS011;10787;53.364;-1.480;2022-08-19T04:14:20;15.73;;;3.20;;
21258;SDS011;10787;53.364;-1.480;2022-08-19T04:16:49;12.38;;;3.30;;
21258;SDS011;10787;53.364;-1.480;2022-08-19T04:19:16;12.88;;;2.65;;
21258;SDS011;10787;53.364;-1.480;2022-08-19T04:21:44;18.83;;;3.00;;
21258;SDS011;10787;53.364;-1.480;2022-08-19T04:24:12;11.60;;;3.13;;
21258;SDS011;10787;53.364;-1.480;2022-08-19T04:26:39;16.27;;;3.03;;
21258;SDS011;10787;53.364;-1.480;2022-08-19T04:29:10;15.57;;;3.63;;
21258;SDS011;10787;53.364;-1.480;2022-08-19T04:31:39;13.52;;;3.10;;
21258;SDS011;10787;53.364;-1.480;2022-08-19T04:34:08;15.10;;;3.28;;
21258;SDS011;10787;53.364;-1.480;2022-08-19T04:36:36;12.65;;;3.20;;
21258;SDS011;10787;53.364;-1.480;2022-08-19T04:39:08;14.38;;;3.35;;
21258;SDS011;10787;53.364;-1.480;2022-08-19T04:41:45;13.45;;;3.20;;
21258;SDS011;10787;53.364;-1.480;2022-08-19T04:44:33;14.43;;;3.08;;
21258;SDS011;10787;53.364;-1.480;2022-08-19T04:47:01;14.88;;;2.95;;
21258;SDS011;10787;53.364;-1.480;2022-08-19T04:49:31;17.67;;;3.33;;
21258;SDS011;10787;53.364;-1.480;2022-08-19T04:51:56;14.07;;;2.90;;
21258;SDS011;10787;53.364;-1.480;2022-08-19T04:54:23;13.85;;;3.00;;
21258;SDS011;10787;53.364;-1.480;2022-08-19T04:56:50;12.52;;;2.70;;
21258;SDS011;10787;53.364;-1.480;2022-08-19T04:59:19;11.80;;;3.00;;
21258;SDS011;10787;53.364;-1.480;2022-08-19T05:01:45;14.30;;;3.42;;
21258;SDS011;10787;53.364;-1.480;2022-08-19T05:04:14;12.32;;;2.95;;
21258;SDS011;10787;53.364;-1.480;2022-08-19T05:06:42;15.45;;;3.22;;
21258;SDS011;10787;53.364;-1.480;2022-08-19T05:09:08;13.68;;;3.22;;
21258;SDS011;10787;53.364;-1.480;2022-08-19T05:11:34;15.82;;;3.53;;
21258;SDS011;10787;53.364;-1.480;2022-08-19T05:14:05;10.52;;;2.92;;
21258;SDS011;10787;53.364;-1.480;2022-08-19T05:16:31;15.50;;;3.33;;
21258;SDS011;10787;53.364;-1.480;2022-08-19T05:18:58;13.48;;;3.03;;
21258;SDS011;10787;53.364;-1.480;2022-08-19T05:21:42;12.45;;;3.20;;
21258;SDS011;10787;53.364;-1.480;2022-08-19T05:24:27;13.55;;;3.53;;
21258;SDS011;10787;53.364;-1.480;2022-08-19T05:26:54;11.80;;;3.20;;
21258;SDS011;10787;53.364;-1.480;2022-08-19T05:29:25;17.00;;;3.38;;
21258;SDS011;10787;53.364;-1.480;2022-08-19T05:31:52;11.13;;;3.35;;
21258;SDS011;10787;53.364;-1.480;2022-08-19T05:34:20;14.55;;;3.50;;
21258;SDS011;10787;53.364;-1.480;2022-08-19T05:36:50;10.55;;;3.08;;
21258;SDS011;10787;53.364;-1.480;2022-08-19T05:39:20;11.23;;;3.13;;
21258;SDS011;10787;53.364;-1.480;2022-08-19T05:41:48;11.65;;;3.35;;
21258;SDS011;10787;53.364;-1.480;2022-08-19T05:44:19;12.43;;;3.08;;
21258;SDS011;10787;53.364;-1.480;2022-08-19T05:46:47;16.63;;;3.30;;
21258;SDS011;10787;53.364;-1.480;2022-08-19T05:49:14;14.13;;;3.50;;
21258;SDS011;10787;53.364;-1.480;2022-08-19T05:51:41;12.88;;;3.10;;
21258;SDS011;10787;53.364;-1.480;2022-08-19T05:54:08;11.48;;;2.90;;
21258;SDS011;10787;53.364;-1.480;2022-08-19T05:56:36;15.30;;;3.20;;
21258;SDS011;10787;53.364;-1.480;2022-08-19T05:59:03;15.25;;;3.20;;
21258;SDS011;10787;53.364;-1.480;2022-08-19T06:01:37;11.95;;;3.10;;
21258;SDS011;10787;53.364;-1.480;2022-08-19T06:04:04;15.20;;;3.35;;
21258;SDS011;10787;53.364;-1.480;2022-08-19T06:06:31;11.75;;;3.17;;
21258;SDS011;10787;53.364;-1.480;2022-08-19T06:09:03;16.55;;;3.13;;
21258;SDS011;10787;53.364;-1.480;2022-08-19T06:11:44;13.85;;;3.45;;
21258;SDS011;10787;53.364;-1.480;2022-08-19T06:14:14;13.52;;;2.78;;
21258;SDS011;10787;53.364;-1.480;2022-08-19T06:16:43;15.02;;;3.33;;
21258;SDS011;10787;53.364;-1.480;2022-08-19T06:19:12;14.35;;;3.10;;
21258;SDS011;10787;53.364;-1.480;2022-08-19T06:21:41;11.02;;;3.25;;
21258;SDS011;10787;53.364;-1.480;2022-08-19T06:24:10;13.95;;;2.70;;
21258;SDS011;10787;53.364;-1.480;2022-08-19T06:26:38;16.50;;;3.25;;
21258;SDS011;10787;53.364;-1.480;2022-08-19T06:29:05;14.05;;;3.30;;
21258;SDS011;10787;53.364;-1.480;2022-08-19T06:31:33;11.70;;;2.97;;
21258;SDS011;10787;53.364;-1.480;2022-08-19T06:34:03;14.73;;;3.25;;
21258;SDS011;10787;53.364;-1.480;2022-08-19T06:36:31;10.23;;;2.90;;
21258;SDS011;10787;53.364;-1.480;2022-08-19T06:39:00;10.98;;;3.25;;
21258;SDS011;10787;53.364;-1.480;2022-08-19T06:41:29;13.43;;;3.30;;
21258;SDS011;10787;53.364;-1.480;2022-08-19T06:43:56;10.88;;;2.67;;
21258;SDS011;10787;53.364;-1.480;2022-08-19T06:46:23;9.02;;;3.00;;
21258;SDS011;10787;53.364;-1.480;2022-08-19T06:48:49;12.07;;;2.92;;
21258;SDS011;10787;53.364;-1.480;2022-08-19T06:51:18;9.95;;;2.70;;
21258;SDS011;10787;53.364;-1.480;2022-08-19T06:53:48;11.70;;;2.95;;
21258;SDS011;10787;53.364;-1.480;2022-08-19T06:56:17;13.60;;;3.20;;
21258;SDS011;10787;53.364;-1.480;2022-08-19T06:58:47;11.40;;;2.97;;
21258;SDS011;10787;53.364;-1.480;2022-08-19T07:01:16;11.25;;;2.95;;
21258;SDS011;10787;53.364;-1.480;2022-08-19T07:03:42;13.63;;;3.15;;
21258;SDS011;10787;53.364;-1.480;2022-08-19T07:06:10;16.13;;;3.20;;
21258;SDS011;10787;53.364;-1.480;2022-08-19T07:08:39;13.05;;;2.90;;
21258;SDS011;10787;53.364;-1.480;2022-08-19T07:11:08;11.25;;;3.00;;
21258;SDS011;10787;53.364;-1.480;2022-08-19T07:13:38;12.68;;;3.10;;
21258;SDS011;10787;53.364;-1.480;2022-08-19T07:16:08;9.85;;;2.83;;
21258;SDS011;10787;53.364;-1.480;2022-08-19T07:18:36;11.98;;;3.35;;
21258;SDS011;10787;53.364;-1.480;2022-08-19T07:21:06;11.32;;;2.85;;
21258;SDS011;10787;53.364;-1.480;2022-08-19T07:23:37;17.23;;;3.15;;
21258;SDS011;10787;53.364;-1.480;2022-08-19T07:26:04;13.75;;;3.00;;
21258;SDS011;10787;53.364;-1.480;2022-08-19T07:28:35;16.25;;;3.03;;
21258;SDS011;10787;53.364;-1.480;2022-08-19T07:31:06;13.80;;;3.13;;
21258;SDS011;10787;53.364;-1.480;2022-08-19T07:33:34;14.30;;;3.42;;
21258;SDS011;10787;53.364;-1.480;2022-08-19T07:36:03;17.27;;;3.17;;
21258;SDS011;10787;53.364;-1.480;2022-08-19T07:38:30;17.10;;;3.25;;
21258;SDS011;10787;53.364;-1.480;2022-08-19T07:40:58;15.77;;;3.45;;
21258;SDS011;10787;53.364;-1.480;2022-08-19T07:43:24;14.70;;;3.45;;
21258;SDS011;10787;53.364;-1.480;2022-08-19T07:45:51;15.57;;;3.03;;
21258;SDS011;10787;53.364;-1.480;2022-08-19T07:48:18;12.50;;;3.65;;
21258;SDS011;10787;53.364;-1.480;2022-08-19T07:50:44;14.70;;;4.45;;
21258;SDS011;10787;53.364;-1.480;2022-08-19T07:53:10;11.93;;;4.60;;
21258;SDS011;10787;53.364;-1.480;2022-08-19T07:55:37;16.65;;;3.90;;
21258;SDS011;10787;53.364;-1.480;2022-08-19T07:58:03;11.23;;;3.92;;
21258;SDS011;10787;53.364;-1.480;2022-08-19T08:00:30;12.65;;;3.65;;
21258;SDS011;10787;53.364;-1.480;2022-08-19T08:02:56;12.43;;;3.45;;
21258;SDS011;10787;53.364;-1.480;2022-08-19T08:05:24;11.55;;;3.20;;
21258;SDS011;10787;53.364;-1.480;2022-08-19T08:08:09;11.85;;;3.35;;
21258;SDS011;10787;53.364;-1.480;2022-08-19T08:11:07;10.63;;;3.28;;
21258;SDS011;10787;53.364;-1.480;2022-08-19T08:13:34;12.13;;;3.50;;
21258;SDS011;10787;53.364;-1.480;2022-08-19T08:16:00;14.18;;;2.95;;
21258;SDS011;10787;53.364;-1.480;2022-08-19T08:18:27;11.45;;;2.95;;
21258;SDS011;10787;53.364;-1.480;2022-08-19T08:20:54;9.35;;;2.97;;
21258;SDS011;10787;53.364;-1.480;2022-08-19T08:23:20;12.13;;;2.88;;
21258;SDS011;10787;53.364;-1.480;2022-08-19T08:25:53;11.68;;;2.72;;
21258;SDS011;10787;53.364;-1.480;2022-08-19T08:28:20;13.52;;;3.03;;
21258;SDS011;10787;53.364;-1.480;2022-08-19T08:30:48;13.52;;;2.65;;
21258;SDS011;10787;53.364;-1.480;2022-08-19T08:33:23;10.57;;;2.50;;
21258;SDS011;10787;53.364;-1.480;2022-08-19T08:35:51;9.27;;;2.47;;
21258;SDS011;10787;53.364;-1.480;2022-08-19T08:38:17;11.48;;;2.60;;
21258;SDS011;10787;53.364;-1.480;2022-08-19T08:40:47;9.68;;;2.67;;
21258;SDS011;10787;53.364;-1.480;2022-08-19T08:43:23;10.82;;;2.58;;
21258;SDS011;10787;53.364;-1.480;2022-08-19T08:48:32;18.10;;;2.95;;
21258;SDS011;10787;53.364;-1.480;2022-08-19T08:51:27;13.75;;;2.83;;
21258;SDS011;10787;53.364;-1.480;2022-08-19T08:53:59;9.80;;;2.38;;
21258;SDS011;10787;53.364;-1.480;2022-08-19T08:56:26;11.68;;;2.58;;
21258;SDS011;10787;53.364;-1.480;2022-08-19T09:01:43;9.35;;;2.30;;
21258;SDS011;10787;53.364;-1.480;2022-08-19T09:04:09;8.20;;;2.47;;
21258;SDS011;10787;53.364;-1.480;2022-08-19T09:06:40;10.70;;;2.33;;
21258;SDS011;10787;53.364;-1.480;2022-08-19T09:09:22;7.53;;;2.60;;
21258;SDS011;10787;53.364;-1.480;2022-08-19T09:14:34;13.27;;;2.60;;
21258;SDS011;10787;53.364;-1.480;2022-08-19T09:17:02;11.38;;;2.67;;
21258;SDS011;10787;53.364;-1.480;2022-08-19T09:19:29;11.88;;;2.50;;
21258;SDS011;10787;53.364;-1.480;2022-08-19T09:21:55;8.90;;;2.13;;
21258;SDS011;10787;53.364;-1.480;2022-08-19T09:24:21;10.43;;;2.58;;
21258;SDS011;10787;53.364;-1.480;2022-08-19T09:26:48;12.07;;;2.63;;
21258;SDS011;10787;53.364;-1.480;2022-08-19T09:29:14;10.43;;;2.90;;
21258;SDS011;10787;53.364;-1.480;2022-08-19T09:31:40;9.15;;;2.20;;
21258;SDS011;10787;53.364;-1.480;2022-08-19T09:34:06;10.15;;;2.67;;
21258;SDS011;10787;53.364;-1.480;2022-08-19T09:36:33;9.80;;;2.70;;
21258;SDS011;10787;53.364;-1.480;2022-08-19T09:39:04;11.27;;;2.33;;
21258;SDS011;10787;53.364;-1.480;2022-08-19T09:41:31;10.07;;;2.45;;
21258;SDS011;10787;53.364;-1.480;2022-08-19T09:43:57;11.55;;;2.40;;
21258;SDS011;10787;53.364;-1.480;2022-08-19T09:46:25;7.20;;;2.33;;
21258;SDS011;10787;53.364;-1.480;2022-08-19T09:48:53;10.68;;;2.40;;
21258;SDS011;10787;53.364;-1.480;2022-08-19T09:51:22;10.18;;;2.42;;
21258;SDS011;10787;53.364;-1.480;2022-08-19T09:53:50;7.95;;;2.35;;
21258;SDS011;10787;53.364;-1.480;2022-08-19T09:56:22;9.65;;;2.35;;
21258;SDS011;10787;53.364;-1.480;2022-08-19T09:58:50;8.88;;;2.25;;
21258;SDS011;10787;53.364;-1.480;2022-08-19T10:01:18;8.35;;;2.22;;
21258;SDS011;10787;53.364;-1.480;2022-08-19T10:03:50;7.43;;;2.13;;
21258;SDS011;10787;53.364;-1.480;2022-08-19T10:06:18;5.40;;;2.10;;
21258;SDS011;10787;53.364;-1.480;2022-08-19T10:08:45;8.50;;;2.25;;
21258;SDS011;10787;53.364;-1.480;2022-08-19T10:11:12;9.32;;;2.03;;
21258;SDS011;10787;53.364;-1.480;2022-08-19T10:13:41;9.45;;;1.92;;
21258;SDS011;10787;53.364;-1.480;2022-08-19T10:16:08;8.10;;;2.38;;
21258;SDS011;10787;53.364;-1.480;2022-08-19T10:18:39;8.20;;;2.40;;
21258;SDS011;10787;53.364;-1.480;2022-08-19T10:21:10;10.05;;;2.38;;
21258;SDS011;10787;53.364;-1.480;2022-08-19T10:23:41;5.53;;;2.00;;
21258;SDS011;10787;53.364;-1.480;2022-08-19T10:26:10;11.70;;;2.50;;
21258;SDS011;10787;53.364;-1.480;2022-08-19T10:28:37;6.65;;;2.47;;
21258;SDS011;10787;53.364;-1.480;2022-08-19T10:31:04;6.68;;;1.80;;
21258;SDS011;10787;53.364;-1.480;2022-08-19T10:33:38;10.52;;;2.30;;
21258;SDS011;10787;53.364;-1.480;2022-08-19T10:36:07;7.82;;;2.03;;
21258;SDS011;10787;53.364;-1.480;2022-08-19T10:38:40;7.93;;;2.22;;
21258;SDS011;10787;53.364;-1.480;2022-08-19T10:41:07;8.13;;;2.08;;
21258;SDS011;10787;53.364;-1.480;2022-08-19T10:43:37;6.88;;;1.73;;
21258;SDS011;10787;53.364;-1.480;2022-08-19T10:46:06;7.63;;;2.13;;
21258;SDS011;10787;53.364;-1.480;2022-08-19T10:48:33;6.72;;;2.05;;
21258;SDS011;10787;53.364;-1.480;2022-08-19T10:50:59;9.70;;;2.30;;
21258;SDS011;10787;53.364;-1.480;2022-08-19T10:53:45;8.32;;;2.38;;
21258;SDS011;10787;53.364;-1.480;2022-08-19T10:56:11;8.10;;;2.13;;
21258;SDS011;10787;53.364;-1.480;2022-08-19T10:58:55;8.18;;;2.00;;
21258;SDS011;10787;53.364;-1.480;2022-08-19T11:01:24;8.98;;;2.10;;
21258;SDS011;10787;53.364;-1.480;2022-08-19T11:03:51;9.68;;;2.00;;
21258;SDS011;10787;53.364;-1.480;2022-08-19T11:06:18;13.77;;;2.25;;
21258;SDS011;10787;53.364;-1.480;2022-08-19T11:08:45;9.52;;;2.25;;
21258;SDS011;10787;53.364;-1.480;2022-08-19T11:11:12;11.02;;;2.35;;
21258;SDS011;10787;53.364;-1.480;2022-08-19T11:13:39;9.82;;;2.33;;
21258;SDS011;10787;53.364;-1.480;2022-08-19T11:16:07;7.95;;;2.40;;
21258;SDS011;10787;53.364;-1.480;2022-08-19T11:18:43;9.38;;;2.30;;
21258;SDS011;10787;53.364;-1.480;2022-08-19T11:21:16;11.20;;;1.88;;
21258;SDS011;10787;53.364;-1.480;2022-08-19T11:23:49;6.57;;;1.48;;
21258;SDS011;10787;53.364;-1.480;2022-08-19T11:26:16;7.30;;;1.70;;
21258;SDS011;10787;53.364;-1.480;2022-08-19T11:28:43;6.35;;;1.55;;
21258;SDS011;10787;53.364;-1.480;2022-08-19T11:31:10;4.00;;;1.20;;
21258;SDS011;10787;53.364;-1.480;2022-08-19T11:33:41;6.97;;;1.77;;
21258;SDS011;10787;53.364;-1.480;2022-08-19T11:36:07;6.72;;;1.98;;
21258;SDS011;10787;53.364;-1.480;2022-08-19T11:38:34;7.13;;;1.85;;
21258;SDS011;10787;53.364;-1.480;2022-08-19T11:41:01;5.13;;;1.60;;
21258;SDS011;10787;53.364;-1.480;2022-08-19T11:43:30;5.68;;;1.90;;
21258;SDS011;10787;53.364;-1.480;2022-08-19T11:45:56;6.75;;;1.95;;
21258;SDS011;10787;53.364;-1.480;2022-08-19T11:48:23;5.70;;;1.73;;
21258;SDS011;10787;53.364;-1.480;2022-08-19T11:50:51;6.40;;;1.63;;
21258;SDS011;10787;53.364;-1.480;2022-08-19T11:53:20;4.47;;;1.52;;
21258;SDS011;10787;53.364;-1.480;2022-08-19T11:55:47;4.53;;;1.35;;
21258;SDS011;10787;53.364;-1.480;2022-08-19T11:58:14;5.57;;;1.98;;
21258;SDS011;10787;53.364;-1.480;2022-08-19T12:00:42;5.05;;;1.73;;
21258;SDS011;10787;53.364;-1.480;2022-08-19T12:03:10;5.97;;;2.03;;
21258;SDS011;10787;53.364;-1.480;2022-08-19T12:05:39;4.88;;;2.00;;
21258;SDS011;10787;53.364;-1.480;2022-08-19T12:08:06;6.10;;;2.33;;
21258;SDS011;10787;53.364;-1.480;2022-08-19T12:10:33;5.97;;;2.05;;
21258;SDS011;10787;53.364;-1.480;2022-08-19T12:12:59;5.50;;;2.17;;
21258;SDS011;10787;53.364;-1.480;2022-08-19T12:15:26;7.88;;;1.80;;
21258;SDS011;10787;53.364;-1.480;2022-08-19T12:17:54;5.97;;;1.85;;
21258;SDS011;10787;53.364;-1.480;2022-08-19T12:20:22;7.22;;;1.65;;
21258;SDS011;10787;53.364;-1.480;2022-08-19T12:22:49;7.18;;;1.60;;
21258;SDS011;10787;53.364;-1.480;2022-08-19T12:25:15;7.35;;;2.25;;
21258;SDS011;10787;53.364;-1.480;2022-08-19T12:27:41;9.43;;;1.90;;
21258;SDS011;10787;53.364;-1.480;2022-08-19T12:30:09;3.80;;;1.40;;
21258;SDS011;10787;53.364;-1.480;2022-08-19T12:32:37;4.85;;;1.63;;
21258;SDS011;10787;53.364;-1.480;2022-08-19T12:35:03;4.00;;;1.50;;
21258;SDS011;10787;53.364;-1.480;2022-08-19T12:37:29;7.60;;;1.90;;
21258;SDS011;10787;53.364;-1.480;2022-08-19T12:39:56;6.80;;;1.90;;
21258;SDS011;10787;53.364;-1.480;2022-08-19T12:42:24;5.65;;;1.83;;
21258;SDS011;10787;53.364;-1.480;2022-08-19T12:44:50;7.05;;;1.67;;
21258;SDS011;10787;53.364;-1.480;2022-08-19T12:47:17;4.97;;;1.40;;
21258;SDS011;10787;53.364;-1.480;2022-08-19T12:49:44;5.13;;;1.50;;
21258;SDS011;10787;53.364;-1.480;2022-08-19T12:52:12;4.88;;;1.33;;
21258;SDS011;10787;53.364;-1.480;2022-08-19T12:54:41;3.55;;;1.30;;
21258;SDS011;10787;53.364;-1.480;2022-08-19T12:57:08;5.50;;;1.20;;
21258;SDS011;10787;53.364;-1.480;2022-08-19T12:59:35;3.75;;;0.88;;
21258;SDS011;10787;53.364;-1.480;2022-08-19T13:02:03;4.68;;;1.10;;
21258;SDS011;10787;53.364;-1.480;2022-08-19T13:04:33;2.40;;;0.90;;
21258;SDS011;10787;53.364;-1.480;2022-08-19T13:07:02;3.90;;;0.93;;
21258;SDS011;10787;53.364;-1.480;2022-08-19T13:09:28;2.83;;;1.00;;
21258;SDS011;10787;53.364;-1.480;2022-08-19T13:11:54;4.35;;;1.20;;
21258;SDS011;10787;53.364;-1.480;2022-08-19T13:14:21;4.55;;;1.13;;
21258;SDS011;10787;53.364;-1.480;2022-08-19T13:16:47;2.60;;;0.82;;
21258;SDS011;10787;53.364;-1.480;2022-08-19T13:19:13;2.45;;;0.90;;
21258;SDS011;10787;53.364;-1.480;2022-08-19T13:21:39;2.75;;;0.82;;
21258;SDS011;10787;53.364;-1.480;2022-08-19T13:24:04;2.78;;;0.95;;
21258;SDS011;10787;53.364;-1.480;2022-08-19T13:26:31;1.63;;;0.70;;
21258;SDS011;10787;53.364;-1.480;2022-08-19T13:28:57;2.20;;;0.85;;
21258;SDS011;10787;53.364;-1.480;2022-08-19T13:31:41;4.20;;;1.20;;
21258;SDS011;10787;53.364;-1.480;2022-08-19T13:34:33;3.88;;;0.70;;
21258;SDS011;10787;53.364;-1.480;2022-08-19T13:37:00;2.60;;;0.85;;
21258;SDS011;10787;53.364;-1.480;2022-08-19T13:39:31;2.33;;;0.85;;
21258;SDS011;10787;53.364;-1.480;2022-08-19T13:41:58;3.78;;;1.10;;
21258;SDS011;10787;53.364;-1.480;2022-08-19T13:44:26;3.58;;;1.05;;
21258;SDS011;10787;53.364;-1.480;2022-08-19T13:46:55;2.15;;;0.80;;
21258;SDS011;10787;53.364;-1.480;2022-08-19T13:49:32;1.77;;;0.80;;
21258;SDS011;10787;53.364;-1.480;2022-08-19T13:51:59;2.75;;;1.00;;
21258;SDS011;10787;53.364;-1.480;2022-08-19T13:54:25;2.38;;;0.85;;
21258;SDS011;10787;53.364;-1.480;2022-08-19T13:56:52;2.88;;;0.82;;
21258;SDS011;10787;53.364;-1.480;2022-08-19T13:59:17;2.05;;;0.70;;
21258;SDS011;10787;53.364;-1.480;2022-08-19T14:01:44;3.40;;;0.90;;
21258;SDS011;10787;53.364;-1.480;2022-08-19T14:04:10;3.20;;;1.00;;
21258;SDS011;10787;53.364;-1.480;2022-08-19T14:06:36;4.47;;;1.00;;
21258;SDS011;10787;53.364;-1.480;2022-08-19T14:09:03;2.60;;;0.90;;
21258;SDS011;10787;53.364;-1.480;2022-08-19T14:11:29;2.63;;;0.80;;
21258;SDS011;10787;53.364;-1.480;2022-08-19T14:13:55;3.92;;;0.98;;
21258;SDS011;10787;53.364;-1.480;2022-08-19T14:16:21;3.60;;;1.00;;
21258;SDS011;10787;53.364;-1.480;2022-08-19T14:18:47;6.32;;;0.90;;
21258;SDS011;10787;53.364;-1.480;2022-08-19T14:21:17;2.80;;;0.80;;
21258;SDS011;10787;53.364;-1.480;2022-08-19T14:23:45;5.10;;;1.05;;
21258;SDS011;10787;53.364;-1.480;2022-08-19T14:26:13;2.88;;;0.90;;
21258;SDS011;10787;53.364;-1.480;2022-08-19T14:28:42;3.75;;;0.90;;
21258;SDS011;10787;53.364;-1.480;2022-08-19T14:31:10;3.65;;;1.00;;
21258;SDS011;10787;53.364;-1.480;2022-08-19T14:33:38;5.55;;;1.20;;
21258;SDS011;10787;53.364;-1.480;2022-08-19T14:36:05;4.68;;;1.10;;
21258;SDS011;10787;53.364;-1.480;2022-08-19T14:38:32;3.72;;;1.30;;
21258;SDS011;10787;53.364;-1.480;2022-08-19T14:43:38;3.10;;;0.90;;
21258;SDS011;10787;53.364;-1.480;2022-08-19T14:46:04;3.53;;;0.90;;
21258;SDS011;10787;53.364;-1.480;2022-08-19T14:48:30;3.90;;;1.10;;
21258;SDS011;10787;53.364;-1.480;2022-08-19T14:50:56;4.63;;;1.00;;